createdAt,value
2023-02-05T00:00:40.204Z,89.41
2023-02-05T00:01:40.310Z,89.34
2023-02-05T00:02:40.658Z,89.15
2023-02-05T00:03:41.095Z,89.21
2023-02-05T00:04:41.778Z,89.22
2023-02-05T00:05:41.669Z,89.15
2023-02-05T00:06:43.009Z,89.14
2023-02-05T00:07:42.513Z,89.22
2023-02-05T00:08:43.091Z,89.27
2023-02-05T00:09:43.536Z,89.14
2023-02-05T00:10:43.955Z,89.18
2023-02-05T00:11:44.854Z,89.14
2023-02-05T00:12:45.291Z,89.16
2023-02-05T00:13:45.621Z,89.17
2023-02-05T00:14:46.337Z,89.23
2023-02-05T00:15:46.443Z,89.14
2023-02-05T00:16:47.368Z,89.13
2023-02-05T00:17:47.156Z,89.25
2023-02-05T00:18:48.616Z,89.28
2023-02-05T00:19:48.930Z,89.38
2023-02-05T00:20:49.062Z,89.19
2023-02-05T00:21:50.009Z,89.25
2023-02-05T00:22:49.776Z,89.31
2023-02-05T00:23:50.396Z,89.2
2023-02-05T00:24:50.917Z,89.21
2023-02-05T00:25:51.015Z,89.26
2023-02-05T00:26:51.538Z,89.32
2023-02-05T00:27:51.793Z,89.29
2023-02-05T00:28:52.382Z,89.21
2023-02-05T00:29:52.555Z,89.18
2023-02-05T00:30:54.320Z,89.27
2023-02-05T00:31:53.572Z,89.32
2023-02-05T00:32:53.726Z,89.3
2023-02-05T00:33:54.153Z,89.4
2023-02-05T00:34:54.561Z,89.55
2023-02-05T00:35:55.080Z,89.49
2023-02-05T00:36:55.486Z,89.45
2023-02-05T00:37:55.677Z,89.42
2023-02-05T00:38:56.136Z,89.42
2023-02-05T00:39:56.657Z,89.52
2023-02-05T00:40:56.858Z,89.57
2023-02-05T00:41:57.378Z,89.64
2023-02-05T00:42:57.659Z,89.61
2023-02-05T00:43:58.097Z,89.48
2023-02-05T00:44:58.613Z,89.45
2023-02-05T00:45:58.955Z,89.54
2023-02-05T00:46:59.347Z,89.84
2023-02-05T00:47:59.664Z,89.84
2023-02-05T00:49:00.056Z,89.78
2023-02-05T00:50:00.404Z,89.8
2023-02-05T00:51:00.820Z,89.77
2023-02-05T00:52:02.050Z,89.89
2023-02-05T00:53:02.976Z,90.01
2023-02-05T00:54:02.869Z,89.92
2023-02-05T00:55:03.188Z,89.82
2023-02-05T00:56:04.123Z,89.86
2023-02-05T00:57:03.998Z,89.93
2023-02-05T00:58:04.443Z,89.95
2023-02-05T00:59:04.850Z,89.9
2023-02-05T01:00:05.571Z,90
2023-02-05T01:01:06.038Z,90
2023-02-05T01:02:06.007Z,89.91
2023-02-05T01:03:06.740Z,89.95
2023-02-05T01:04:06.622Z,90.07
2023-02-05T01:05:07.961Z,90.07
2023-02-05T01:06:08.044Z,90.04
2023-02-05T01:07:08.709Z,90.05
2023-02-05T01:08:11.294Z,90.01
2023-02-05T01:09:08.572Z,89.99
2023-02-05T01:10:09.561Z,90.1
2023-02-05T01:11:10.489Z,90.07
2023-02-05T01:12:09.772Z,90.16
2023-02-05T01:13:10.241Z,90.06
2023-02-05T01:14:10.702Z,90.09
2023-02-05T01:15:13.190Z,90.05
2023-02-05T01:16:11.627Z,90.11
2023-02-05T01:17:11.840Z,90.1
2023-02-05T01:18:12.461Z,90.14
2023-02-05T01:19:13.052Z,90.28
2023-02-05T01:20:15.525Z,90.18
2023-02-05T01:21:13.309Z,90.14
2023-02-05T01:22:13.817Z,89.96
2023-02-05T01:23:14.132Z,89.97
2023-02-05T01:24:14.674Z,90.04
2023-02-05T01:25:14.869Z,90.16
2023-02-05T01:26:15.283Z,90.12
2023-02-05T01:27:15.802Z,90
2023-02-05T01:28:16.294Z,90.08
2023-02-05T01:29:17.148Z,90.17
2023-02-05T01:30:17.771Z,90.28
2023-02-05T01:31:18.131Z,90.29
2023-02-05T01:32:18.929Z,90.28
2023-02-05T01:33:19.552Z,90.24
2023-02-05T01:34:19.235Z,90.2
2023-02-05T01:35:19.745Z,90.17
2023-02-05T01:36:19.971Z,90.25
2023-02-05T01:37:20.471Z,90.3
2023-02-05T01:38:20.690Z,90.26
2023-02-05T01:39:21.140Z,90.2
2023-02-05T01:40:22.140Z,90.32
2023-02-05T01:41:21.939Z,90.33
2023-02-05T01:42:28.203Z,90.38
2023-02-05T01:43:25.507Z,90.46
2023-02-05T01:44:26.058Z,90.41
2023-02-05T01:46:31.090Z,90.46
2023-02-05T01:47:28.538Z,90.44
2023-02-05T01:48:32.843Z,90.47
2023-02-05T01:51:36.849Z,90.46
2023-02-05T01:52:34.193Z,90.48
2023-02-05T01:53:36.246Z,90.41
2023-02-05T01:54:38.179Z,90.46
2023-02-05T01:57:40.683Z,90.38
2023-02-05T01:59:46.127Z,90.3
2023-02-05T02:00:46.639Z,90.3
2023-02-05T02:01:46.803Z,90.28
2023-02-05T02:02:46.655Z,90.33
2023-02-05T02:03:49.506Z,90.41
2023-02-05T02:05:49.635Z,90.53
2023-02-05T02:06:49.946Z,90.45
2023-02-05T02:07:50.785Z,90.47
2023-02-05T02:08:50.670Z,90.44
2023-02-05T02:09:53.763Z,90.45
2023-02-05T02:10:53.555Z,90.49
2023-02-05T02:11:51.835Z,90.2
2023-02-05T02:12:54.909Z,90.23
2023-02-05T02:13:55.339Z,90.23
2023-02-05T02:15:57.940Z,90.35
2023-02-05T02:17:00.678Z,90.44
2023-02-05T02:18:02.472Z,90.54
2023-02-05T02:19:01.104Z,90.59
2023-02-05T02:39:55.705Z,90.46
2023-02-05T02:40:54.596Z,90.52
2023-02-05T02:41:55.397Z,90.68
2023-02-05T02:43:03.577Z,90.62
2023-02-05T02:44:05.335Z,90.44
2023-02-05T02:45:01.176Z,90.47
2023-02-05T02:46:11.901Z,90.46
2023-02-05T02:47:04.766Z,90.48
2023-02-05T02:48:04.472Z,90.25
2023-02-05T02:49:07.250Z,89.94
2023-02-05T02:50:15.240Z,89.83
2023-02-05T02:51:11.958Z,89.92
2023-02-05T02:52:14.330Z,89.99
2023-02-05T02:53:22.223Z,90.02
2023-02-05T02:54:18.233Z,89.98
2023-02-05T02:55:17.105Z,89.88
2023-02-05T02:56:19.066Z,89.94
2023-02-05T02:57:19.392Z,90.07
2023-02-05T02:58:23.392Z,90.02
2023-02-05T02:59:25.021Z,89.94
2023-02-05T03:00:26.635Z,89.88
2023-02-05T03:01:27.313Z,89.82
2023-02-05T03:02:26.782Z,89.88
2023-02-05T03:03:28.370Z,89.7
2023-02-05T03:04:37.853Z,89.59
2023-02-05T03:05:31.866Z,89.32
2023-02-05T03:06:33.670Z,89.3
2023-02-05T03:08:42.294Z,88.31
2023-02-05T03:10:44.352Z,87.99
2023-02-05T03:11:41.656Z,88.03
2023-02-05T03:12:42.384Z,88.01
2023-02-05T03:13:44.778Z,87.63
2023-02-05T03:14:43.161Z,87.79
2023-02-05T03:15:45.518Z,87.73
2023-02-05T03:16:43.776Z,87.61
2023-02-05T03:17:44.196Z,87.47
2023-02-05T03:18:45.229Z,87.52
2023-02-05T03:20:58.451Z,87.48
2023-02-05T03:21:56.637Z,87.33
2023-02-05T03:22:55.807Z,87.35
2023-02-05T03:23:54.589Z,87.45
2023-02-05T03:24:55.092Z,87.4
2023-02-05T03:25:55.317Z,87.45
2023-02-05T03:26:55.722Z,87.57
2023-02-05T03:27:57.599Z,87.5
2023-02-05T03:29:03.527Z,87.76
2023-02-05T03:30:01.795Z,87.74
2023-02-05T03:37:33.477Z,86.77
2023-02-05T03:46:56.578Z,84.69
2023-02-05T03:59:17.703Z,84.46
2023-02-05T04:00:15.809Z,84.58
2023-02-05T04:01:15.909Z,84.36
2023-02-05T04:02:17.441Z,84.33
2023-02-05T04:03:16.649Z,83.92
2023-02-05T04:04:17.129Z,83.93
2023-02-05T04:05:17.474Z,83.75
2023-02-05T04:06:17.484Z,84.09
2023-02-05T04:07:19.228Z,84.34
2023-02-05T04:08:18.327Z,84.55
2023-02-05T04:09:19.962Z,84.53
2023-02-05T04:10:19.554Z,84.87
2023-02-05T04:11:19.336Z,84.96
2023-02-05T04:12:19.776Z,85.14
2023-02-05T04:13:20.297Z,84.9
2023-02-05T04:14:20.714Z,84.5
2023-02-05T04:15:21.024Z,84.16
2023-02-05T04:16:21.527Z,83.32
2023-02-05T04:17:21.964Z,83.78
2023-02-05T04:18:22.589Z,84.02
2023-02-05T04:19:22.698Z,84.47
2023-02-05T04:20:22.906Z,84.93
2023-02-05T04:21:23.316Z,85.19
2023-02-05T04:22:23.936Z,85.11
2023-02-05T04:23:24.137Z,85.2
2023-02-05T04:24:24.776Z,85.34
2023-02-05T04:25:24.887Z,85.2
2023-02-05T04:26:25.297Z,85.39
2023-02-05T04:27:25.716Z,85.13
2023-02-05T04:28:26.290Z,84.9
2023-02-05T04:29:27.065Z,85.21
2023-02-05T04:30:27.006Z,85.29
2023-02-05T04:31:27.261Z,84.96
2023-02-05T04:32:27.606Z,84.86
2023-02-05T04:33:29.164Z,84.94
2023-02-05T04:34:28.853Z,84.81
2023-02-05T04:35:28.846Z,85.01
2023-02-05T04:36:29.358Z,85.22
2023-02-05T04:37:29.567Z,85.45
2023-02-05T04:38:30.101Z,85.09
2023-02-05T04:39:30.674Z,85.21
2023-02-05T04:40:30.722Z,85.28
2023-02-05T04:41:31.238Z,84.95
2023-02-05T04:42:31.576Z,84.89
2023-02-05T04:43:31.979Z,84.46
2023-02-05T04:44:32.892Z,84.14
2023-02-05T04:45:33.495Z,84.1
2023-02-05T04:46:33.429Z,84.06
2023-02-05T04:47:33.841Z,84.07
2023-02-05T04:48:34.873Z,83.58
2023-02-05T04:49:34.385Z,83.75
2023-02-05T04:50:34.891Z,84.04
2023-02-05T04:51:34.994Z,84.04
2023-02-05T04:52:35.423Z,84
2023-02-05T04:53:36.029Z,83.91
2023-02-05T04:54:37.688Z,84.07
2023-02-05T04:55:36.819Z,84.17
2023-02-05T04:56:38.316Z,84.49
2023-02-05T04:57:37.505Z,84.65
2023-02-05T04:58:38.023Z,84.19
2023-02-05T04:59:38.318Z,83.98
2023-02-05T05:00:38.401Z,83.87
2023-02-05T05:01:38.839Z,84.02
2023-02-05T05:02:39.416Z,84.22
2023-02-05T05:03:40.402Z,83.84
2023-02-05T05:04:42.094Z,83.97
2023-02-05T05:05:40.406Z,84.02
2023-02-05T05:06:40.800Z,83.79
2023-02-05T05:07:41.153Z,83.57
2023-02-05T05:08:41.985Z,83.48
2023-02-05T05:09:42.697Z,83.24
2023-02-05T05:10:42.494Z,83.15
2023-02-05T05:11:42.910Z,83.13
2023-02-05T05:12:43.328Z,83.22
2023-02-05T05:13:43.657Z,83.48
2023-02-05T05:14:43.971Z,83.3
2023-02-05T05:15:44.413Z,83.28
2023-02-05T05:16:44.887Z,83.32
2023-02-05T05:17:45.003Z,83.16
2023-02-05T05:18:45.728Z,83.27
2023-02-05T05:19:45.941Z,83.52
2023-02-05T05:20:46.248Z,83.43
2023-02-05T05:21:46.602Z,83.49
2023-02-05T05:22:46.934Z,83.47
2023-02-05T05:23:47.602Z,83.52
2023-02-05T05:24:47.909Z,83.43
2023-02-05T05:25:48.819Z,83.39
2023-02-05T05:26:48.640Z,83.33
2023-02-05T05:27:49.185Z,83.25
2023-02-05T05:28:55.517Z,83.27
2023-02-05T05:29:52.986Z,83.27
2023-02-05T05:30:53.339Z,83.24
2023-02-05T05:31:54.214Z,83.24
2023-02-05T05:32:54.111Z,83.12
2023-02-05T05:33:54.421Z,83.24
2023-02-05T05:34:54.851Z,83.57
2023-02-05T05:35:55.254Z,83.48
2023-02-05T05:36:55.572Z,83.46
2023-02-05T05:37:59.378Z,83.62
2023-02-05T05:38:56.823Z,83.9
2023-02-05T05:39:57.234Z,83.78
2023-02-05T05:40:57.445Z,83.81
2023-02-05T05:41:57.965Z,83.71
2023-02-05T05:42:58.381Z,83.89
2023-02-05T05:43:58.690Z,83.94
2023-02-05T05:44:59.293Z,84.01
2023-02-05T05:45:59.497Z,84.17
2023-02-05T05:46:59.823Z,84.28
2023-02-05T05:48:00.254Z,84.28
2023-02-05T05:49:01.905Z,84.39
2023-02-05T05:50:01.090Z,84.24
2023-02-05T05:51:01.535Z,84.22
2023-02-05T05:52:01.724Z,84.19
2023-02-05T05:53:02.233Z,84.23
2023-02-05T05:54:02.550Z,84.38
2023-02-05T05:55:03.189Z,84.43
2023-02-05T05:56:03.793Z,84.5
2023-02-05T05:57:04.405Z,84.37
2023-02-05T05:58:05.891Z,84.35
2023-02-05T05:59:05.142Z,84.49
2023-02-05T06:00:06.178Z,84.56
2023-02-05T06:01:06.459Z,84.6
2023-02-05T06:02:05.763Z,84.6
2023-02-05T06:03:06.278Z,84.65
2023-02-05T06:04:06.609Z,84.78
2023-02-05T06:05:07.754Z,84.84
2023-02-05T06:06:15.528Z,84.91
2023-02-05T06:07:07.994Z,84.89
2023-02-05T06:08:08.366Z,84.93
2023-02-05T06:09:08.687Z,84.96
2023-02-05T06:10:09.743Z,85.1
2023-02-05T06:11:09.536Z,85.22
2023-02-05T06:12:11.641Z,85.3
2023-02-05T06:13:10.362Z,85.33
2023-02-05T06:14:10.568Z,85.5
2023-02-05T06:15:11.713Z,85.54
2023-02-05T06:16:12.025Z,85.52
2023-02-05T06:17:12.435Z,85.55
2023-02-05T06:18:12.917Z,85.44
2023-02-05T06:19:13.168Z,85.75
2023-02-05T06:20:14.350Z,85.76
2023-02-05T06:21:14.049Z,85.81
2023-02-05T06:22:14.516Z,85.94
2023-02-05T06:23:15.026Z,85.99
2023-02-05T06:24:15.245Z,86.08
2023-02-05T06:25:15.871Z,86.37
2023-02-05T06:26:16.104Z,86.45
2023-02-05T06:27:16.691Z,86.66
2023-02-05T06:28:16.834Z,86.84
2023-02-05T06:29:17.214Z,86.73
2023-02-05T06:30:17.720Z,86.73
2023-02-05T06:31:18.127Z,86.73
2023-02-05T06:32:18.172Z,86.99
2023-02-05T06:33:18.640Z,87.05
2023-02-05T06:34:19.092Z,86.95
2023-02-05T06:35:19.829Z,87.08
2023-02-05T06:36:19.801Z,87.36
2023-02-05T06:37:20.221Z,87.56
2023-02-05T06:38:23.220Z,87.6
2023-02-05T06:39:20.877Z,87.49
2023-02-05T06:40:21.406Z,87.48
2023-02-05T06:41:21.904Z,87.44
2023-02-05T06:42:22.229Z,87.57
2023-02-05T06:43:22.327Z,87.3
2023-02-05T06:44:23.058Z,87.54
2023-02-05T06:45:24.344Z,87.5
2023-02-05T06:46:23.680Z,87.45
2023-02-05T06:47:24.005Z,87.32
2023-02-05T06:48:24.616Z,87.36
2023-02-05T06:49:24.727Z,87.25
2023-02-05T06:50:26.170Z,87.22
2023-02-05T06:51:25.551Z,87.34
2023-02-05T06:52:26.088Z,87.27
2023-02-05T06:53:26.604Z,87.12
2023-02-05T06:54:26.927Z,87.14
2023-02-05T06:55:27.206Z,87.19
2023-02-05T06:56:28.985Z,87
2023-02-05T06:57:28.068Z,86.81
2023-02-05T06:58:28.473Z,86.67
2023-02-05T06:59:28.480Z,86.98
2023-02-05T07:00:29.600Z,86.98
2023-02-05T07:01:29.342Z,86.79
2023-02-05T07:02:30.052Z,86.76
2023-02-05T07:03:30.137Z,87.02
2023-02-05T07:04:30.774Z,86.81
2023-02-05T07:05:30.991Z,86.78
2023-02-05T07:06:31.186Z,87.15
2023-02-05T07:07:31.709Z,87.29
2023-02-05T07:08:32.124Z,87.07
2023-02-05T07:09:32.559Z,86.93
2023-02-05T07:10:33.159Z,86.87
2023-02-05T07:11:33.283Z,86.76
2023-02-05T07:12:33.593Z,87.04
2023-02-05T07:13:34.102Z,86.9
2023-02-05T07:14:38.623Z,86.81
2023-02-05T07:15:37.157Z,86.71
2023-02-05T07:16:36.265Z,86.84
2023-02-05T07:17:37.212Z,86.88
2023-02-05T07:18:37.216Z,87.2
2023-02-05T07:19:37.767Z,86.98
2023-02-05T07:20:38.043Z,86.97
2023-02-05T07:21:38.270Z,86.74
2023-02-05T07:22:38.888Z,86.32
2023-02-05T07:23:38.997Z,86.22
2023-02-05T07:24:39.413Z,86.05
2023-02-05T07:25:39.993Z,85.97
2023-02-05T07:26:40.249Z,86.06
2023-02-05T07:27:40.777Z,86.25
2023-02-05T07:28:41.998Z,86.33
2023-02-05T07:29:41.385Z,86.17
2023-02-05T07:30:41.965Z,86.18
2023-02-05T07:31:42.243Z,86.44
2023-02-05T07:32:42.450Z,86.6
2023-02-05T07:33:44.175Z,86.74
2023-02-05T07:34:44.601Z,86.85
2023-02-05T07:35:43.781Z,87
2023-02-05T07:36:43.990Z,87.13
2023-02-05T07:37:44.282Z,87.13
2023-02-05T07:38:46.670Z,87.15
2023-02-05T07:39:45.336Z,86.85
2023-02-05T07:40:45.643Z,86.73
2023-02-05T07:41:45.965Z,86.85
2023-02-05T07:42:46.490Z,86.8
2023-02-05T07:43:50.385Z,86.62
2023-02-05T07:44:47.801Z,86.45
2023-02-05T07:45:56.650Z,86.66
2023-02-05T07:46:49.032Z,86.68
2023-02-05T07:47:49.389Z,86.48
2023-02-05T07:48:50.722Z,86.33
2023-02-05T07:49:50.836Z,86.44
2023-02-05T07:50:51.465Z,86.51
2023-02-05T07:51:51.654Z,86.47
2023-02-05T07:52:52.089Z,86.58
2023-02-05T07:53:52.712Z,86.52
2023-02-05T07:54:55.484Z,86.54
2023-02-05T07:55:53.538Z,86.35
2023-02-05T07:56:53.646Z,86.28
2023-02-05T07:57:54.124Z,86.37
2023-02-05T07:58:54.380Z,86.28
2023-02-05T07:59:54.792Z,86.19
2023-02-05T08:00:55.165Z,86.26
2023-02-05T08:01:56.750Z,86.25
2023-02-05T08:02:56.557Z,86.36
2023-02-05T08:03:57.785Z,86.48
2023-02-05T08:04:58.098Z,86.58
2023-02-05T08:05:58.628Z,86.43
2023-02-05T08:06:58.933Z,86.32
2023-02-05T08:07:59.310Z,86.22
2023-02-05T08:08:59.578Z,86.26
2023-02-05T08:10:00.141Z,86.16
2023-02-05T08:11:03.663Z,85.95
2023-02-05T08:12:00.999Z,85.94
2023-02-05T08:13:01.436Z,86.17
2023-02-05T08:14:01.956Z,86.24
2023-02-05T08:15:02.066Z,86.84
2023-02-05T08:16:06.845Z,86.73
2023-02-05T08:17:05.056Z,86.47
2023-02-05T08:18:04.848Z,86.5
2023-02-05T08:19:05.059Z,86.21
2023-02-05T08:20:06.578Z,86.12
2023-02-05T08:21:06.202Z,86.23
2023-02-05T08:22:07.018Z,86.05
2023-02-05T08:23:07.439Z,85.98
2023-02-05T08:24:07.960Z,85.88
2023-02-05T08:25:10.825Z,85.82
2023-02-05T08:26:08.682Z,85.73
2023-02-05T08:27:08.988Z,85.77
2023-02-05T08:28:10.448Z,85.65
2023-02-05T08:29:10.458Z,85.66
2023-02-05T08:30:13.824Z,85.43
2023-02-05T08:31:13.239Z,85.61
2023-02-05T08:32:11.594Z,85.48
2023-02-05T08:33:11.920Z,85.26
2023-02-05T08:34:12.327Z,84.93
2023-02-05T08:35:12.747Z,85.49
2023-02-05T08:36:13.180Z,85.46
2023-02-05T08:37:13.591Z,85.25
2023-02-05T08:38:14.217Z,85.41
2023-02-05T08:39:14.519Z,85.15
2023-02-05T08:40:14.620Z,85.19
2023-02-05T08:41:15.148Z,85.32
2023-02-05T08:42:15.571Z,85.83
2023-02-05T08:43:15.867Z,85.8
2023-02-05T08:44:16.289Z,85.8
2023-02-05T08:45:16.820Z,85.91
2023-02-05T08:46:20.498Z,85.74
2023-02-05T08:47:22.257Z,85.91
2023-02-05T08:48:19.796Z,86.01
2023-02-05T08:49:20.289Z,85.94
2023-02-05T08:50:21.348Z,85.77
2023-02-05T08:51:21.346Z,85.84
2023-02-05T08:52:21.569Z,85.92
2023-02-05T08:53:21.666Z,85.76
2023-02-05T08:54:22.695Z,85.67
2023-02-05T08:55:22.509Z,85.68
2023-02-05T08:56:22.931Z,85.67
2023-02-05T08:57:30.094Z,85.58
2023-02-05T08:58:28.453Z,85.77
2023-02-05T08:59:27.958Z,85.79
2023-02-05T09:00:28.126Z,85.82
2023-02-05T09:01:28.771Z,85.59
2023-02-05T09:02:31.823Z,85.71
2023-02-05T09:03:30.446Z,85.85
2023-02-05T09:04:30.191Z,85.92
2023-02-05T09:05:30.356Z,85.62
2023-02-05T09:06:30.740Z,85.67
2023-02-05T09:07:31.283Z,85.72
2023-02-05T09:08:31.691Z,85.97
2023-02-05T09:09:35.086Z,85.98
2023-02-05T09:10:32.546Z,85.67
2023-02-05T09:11:33.233Z,85.61
2023-02-05T09:12:33.471Z,85.52
2023-02-05T09:13:34.397Z,85.25
2023-02-05T09:14:34.000Z,85.25
2023-02-05T09:15:34.747Z,85
2023-02-05T09:16:35.486Z,84.73
2023-02-05T09:17:35.147Z,84.55
2023-02-05T09:18:35.767Z,84.54
2023-02-05T09:19:38.530Z,84.54
2023-02-05T09:20:41.202Z,84.86
2023-02-05T09:21:38.551Z,85.32
2023-02-05T09:22:38.960Z,85.38
2023-02-05T09:23:39.504Z,85.22
2023-02-05T09:24:39.796Z,84.99
2023-02-05T09:25:41.045Z,84.64
2023-02-05T09:26:40.642Z,84.26
2023-02-05T09:27:41.035Z,84.06
2023-02-05T09:28:41.564Z,83.69
2023-02-05T09:29:41.892Z,83.3
2023-02-05T09:30:45.703Z,82.95
2023-02-05T09:31:43.623Z,82.4
2023-02-05T09:32:44.988Z,81.74
2023-02-05T09:33:46.372Z,81.21
2023-02-05T09:34:44.678Z,81.51
2023-02-05T09:35:45.097Z,81.64
2023-02-05T09:36:45.522Z,81.47
2023-02-05T09:37:45.924Z,81.2
2023-02-05T09:38:47.076Z,81.2
2023-02-05T09:43:08.407Z,81.52
2023-02-05T09:50:25.093Z,80.37
2023-02-05T09:51:25.546Z,80.03
2023-02-05T09:52:22.002Z,79.18
2023-02-05T09:53:21.476Z,79.56
2023-02-05T09:55:26.355Z,80.37
2023-02-05T09:56:25.270Z,80.63
2023-02-05T09:58:31.060Z,80.45
2023-02-05T09:59:29.694Z,80.46
2023-02-05T10:00:32.769Z,80.77
2023-02-05T10:03:45.411Z,81.13
2023-02-05T10:04:45.919Z,81.23
2023-02-05T10:11:02.737Z,81.3
2023-02-05T10:22:36.420Z,81.57
2023-02-05T10:36:06.619Z,81.79
2023-02-05T10:38:10.500Z,82.35
2023-02-05T10:39:15.537Z,82.71
2023-02-05T10:40:21.281Z,82.21
2023-02-05T10:45:27.565Z,80.64
2023-02-05T10:46:32.435Z,80.45
2023-02-05T10:52:40.400Z,80.19
2023-02-05T10:53:41.128Z,80.44
2023-02-05T10:54:42.671Z,80.83
2023-02-05T10:55:41.424Z,80.68
2023-02-05T10:56:42.259Z,80.92
2023-02-05T10:57:42.284Z,81.18
2023-02-05T11:00:48.121Z,81.94
2023-02-05T11:01:49.392Z,81.96
2023-02-05T11:02:52.099Z,81.83
2023-02-05T11:05:01.159Z,81.89
2023-02-05T11:05:59.230Z,81.47
2023-02-05T11:06:59.233Z,81.33
2023-02-05T11:07:59.352Z,81.3
2023-02-05T11:09:00.061Z,80.93
2023-02-05T11:11:02.430Z,80.93
2023-02-05T11:14:07.933Z,81.59
2023-02-05T11:15:19.978Z,81.7
2023-02-05T11:16:12.805Z,81.83
2023-02-05T11:19:24.081Z,81.37
2023-02-05T11:21:21.923Z,81.93
2023-02-05T11:23:24.200Z,81.88
2023-02-05T11:25:29.125Z,81.33
2023-02-05T11:26:29.446Z,81.54
2023-02-05T11:27:31.012Z,81.48
2023-02-05T11:29:30.323Z,81.35
2023-02-05T11:30:52.635Z,81.72
2023-02-05T11:31:35.597Z,82.01
2023-02-05T11:32:38.304Z,82.34
2023-02-05T11:33:36.575Z,82.2
2023-02-05T11:34:36.897Z,81.74
2023-02-05T11:35:37.810Z,81.5
2023-02-05T11:37:40.421Z,81.79
2023-02-05T11:39:44.504Z,81.4
2023-02-05T11:40:53.415Z,81.07
2023-02-05T11:41:45.963Z,81.14
2023-02-05T11:45:55.592Z,80.71
2023-02-05T11:46:55.550Z,80.82
2023-02-05T11:47:54.278Z,80.59
2023-02-05T11:49:59.491Z,80.27
2023-02-05T11:51:01.162Z,79.78
2023-02-05T11:52:00.662Z,80.29
2023-02-05T11:56:21.516Z,79.64
2023-02-05T11:58:31.555Z,79.6
2023-02-05T12:00:22.218Z,79.96
2023-02-05T12:01:24.697Z,79.54
2023-02-05T12:03:30.893Z,79.58
2023-02-05T12:04:39.545Z,79.43
2023-02-05T12:05:38.865Z,79.48
2023-02-05T12:09:41.946Z,79
2023-02-05T12:42:05.280Z,77.7
2023-02-05T12:57:49.948Z,76.97
2023-02-05T12:58:54.558Z,76.47
2023-02-05T13:01:03.543Z,77.38
2023-02-05T13:04:02.912Z,77.45
2023-02-05T13:12:24.042Z,78.49
2023-02-05T13:13:28.150Z,78.32
2023-02-05T13:21:50.515Z,77.83
2023-02-05T13:22:57.075Z,77.66
2023-02-05T13:23:52.243Z,77.6
2023-02-05T13:24:58.404Z,77.69
2023-02-05T13:25:51.157Z,77.81
2023-02-05T13:26:53.118Z,78.21
2023-02-05T13:27:58.699Z,78.52
2023-02-05T13:29:59.687Z,78.4
2023-02-05T13:31:01.864Z,78.26
2023-02-05T13:33:06.778Z,78.62
2023-02-05T13:34:07.798Z,78.34
2023-02-05T13:35:08.219Z,78.77
2023-02-05T13:58:56.908Z,81.68
2023-02-05T13:59:55.962Z,81.67
2023-02-05T14:01:02.482Z,81.83
2023-02-05T14:01:58.386Z,81.86
2023-02-05T14:02:57.034Z,82
2023-02-05T14:05:00.289Z,82.25
2023-02-05T14:05:58.708Z,82.13
2023-02-05T14:08:02.004Z,82.1
2023-02-05T14:10:04.960Z,82.18
2023-02-05T14:11:05.592Z,82.34
2023-02-05T14:12:07.643Z,82.29
2023-02-05T14:24:47.151Z,83.28
2023-02-05T14:27:52.343Z,83.54
2023-02-05T14:28:52.707Z,83.67
2023-02-05T14:29:53.440Z,83.7
2023-02-05T14:31:58.266Z,83.81
2023-02-05T14:38:24.630Z,84.14
2023-02-05T14:39:27.583Z,83.91
2023-02-05T14:41:27.095Z,84.35
2023-02-05T14:42:28.410Z,84.55
2023-02-05T14:43:35.208Z,84.71
2023-02-05T14:44:31.526Z,84.96
2023-02-05T14:45:29.687Z,85.06
2023-02-05T14:47:34.921Z,85.3
2023-02-05T14:50:36.870Z,85.47
2023-02-05T14:51:39.427Z,85.9
2023-02-05T14:53:46.400Z,85.97
2023-02-05T14:54:48.064Z,86.13
2023-02-05T14:55:45.516Z,86.28
2023-02-05T14:56:52.180Z,86.29
2023-02-05T14:59:01.310Z,85.91
2023-02-05T15:02:02.656Z,85.72
2023-02-05T15:04:05.754Z,85.67
2023-02-05T15:05:06.573Z,85.41
2023-02-05T15:13:24.446Z,86.83
2023-02-05T15:14:26.281Z,87.11
2023-02-05T15:16:27.526Z,87.48
2023-02-05T15:18:37.439Z,87.73
2023-02-05T15:19:41.760Z,87.58
2023-02-05T15:20:40.273Z,87.47
2023-02-05T15:23:47.139Z,87.83
2023-02-05T15:24:47.857Z,87.86
2023-02-05T15:27:59.711Z,87.94
2023-02-05T15:33:20.252Z,88.33
2023-02-05T15:41:30.901Z,89.12
2023-02-05T15:43:35.918Z,89.19
2023-02-05T15:44:35.504Z,89.39
2023-02-05T15:45:34.901Z,89.5
2023-02-05T15:46:34.425Z,89.62
2023-02-05T15:47:35.016Z,89.64
2023-02-05T15:48:37.684Z,89.34
2023-02-05T15:49:43.525Z,89.37
2023-02-05T15:50:44.254Z,89.53
2023-02-05T15:51:37.595Z,89.53
2023-02-05T15:52:37.905Z,89.7
2023-02-05T15:54:40.494Z,89.67
2023-02-05T15:55:40.093Z,89.74
2023-02-05T15:56:41.848Z,89.85
2023-02-05T15:57:40.520Z,89.71
2023-02-05T15:59:43.082Z,90.07
2023-02-05T16:00:45.955Z,90.07
2023-02-05T16:03:50.382Z,89.91
2023-02-05T16:05:55.196Z,90.12
2023-02-05T16:06:55.802Z,90.06
2023-02-05T16:07:56.353Z,90.03
2023-02-05T16:08:56.657Z,89.96
2023-02-05T16:09:59.639Z,89.89
2023-02-05T16:10:59.112Z,90
2023-02-05T16:14:12.140Z,90.25
2023-02-05T16:15:07.548Z,90.36
2023-02-05T16:16:10.944Z,90.25
2023-02-05T16:17:20.881Z,90.35
2023-02-05T16:19:22.939Z,90.45
2023-02-05T16:21:30.024Z,90.44
2023-02-05T16:23:32.895Z,90.98
2023-02-05T16:24:33.616Z,90.94
2023-02-05T16:30:44.216Z,91.1
2023-02-05T16:31:41.714Z,91.28
2023-02-05T16:32:42.491Z,91.1
2023-02-05T16:34:46.485Z,91.22
2023-02-05T16:35:48.303Z,91.01
2023-02-05T16:36:50.902Z,90.88
2023-02-05T16:37:48.569Z,91.06
2023-02-05T16:38:54.191Z,90.99
2023-02-05T16:39:54.029Z,91.02
2023-02-05T16:40:55.742Z,90.73
2023-02-05T16:42:53.607Z,90.8
2023-02-05T16:43:55.969Z,90.92
2023-02-05T16:49:04.805Z,91.05
2023-02-05T16:51:05.858Z,91.08
2023-02-05T16:58:23.294Z,90.99
2023-02-05T16:59:24.440Z,90.87
2023-02-05T17:00:24.948Z,91.11
2023-02-05T17:01:27.822Z,91.19
2023-02-05T17:03:41.672Z,91.09
2023-02-05T17:04:36.849Z,91.29
2023-02-05T17:07:34.832Z,91.51
2023-02-05T17:08:37.506Z,91.19
2023-02-05T17:09:37.711Z,91.25
2023-02-05T17:15:46.134Z,91.1
2023-02-05T17:16:54.970Z,91.12
2023-02-05T17:17:55.904Z,91.02
2023-02-05T17:24:05.835Z,91.6
2023-02-05T17:25:07.004Z,91.5
2023-02-05T17:26:04.658Z,91.55
2023-02-05T17:27:05.584Z,91.74
2023-02-05T17:28:07.877Z,91.87
2023-02-05T17:29:08.364Z,91.66
2023-02-05T17:30:14.114Z,91.48
2023-02-05T17:31:07.042Z,91.26
2023-02-05T17:32:06.833Z,91.12
2023-02-05T17:33:09.234Z,90.92
2023-02-05T17:34:07.599Z,90.82
2023-02-05T17:36:17.029Z,90.57
2023-02-05T17:37:14.967Z,90.68
2023-02-05T17:38:15.504Z,90.9
2023-02-05T17:39:15.194Z,91.04
2023-02-05T17:40:15.812Z,91.22
2023-02-05T17:42:22.688Z,91.29
2023-02-05T17:43:20.037Z,91.45
2023-02-05T17:44:21.445Z,91.49
2023-02-05T17:45:24.354Z,91.48
2023-02-05T17:46:21.788Z,91.3
2023-02-05T17:47:22.013Z,91.32
2023-02-05T17:48:22.518Z,91.38
2023-02-05T17:49:23.036Z,91.42
2023-02-05T17:50:23.354Z,91.39
2023-02-05T17:51:26.644Z,91.07
2023-02-05T17:52:24.056Z,90.84
2023-02-05T17:53:24.502Z,90.76
2023-02-05T17:54:25.739Z,90.88
2023-02-05T17:55:25.348Z,90.83
2023-02-05T17:56:26.175Z,90.87
2023-02-05T17:57:26.064Z,90.95
2023-02-05T17:58:26.376Z,91.09
2023-02-05T17:59:26.892Z,91.14
2023-02-05T18:00:28.927Z,90.95
2023-02-05T18:01:27.661Z,91.09
2023-02-05T18:02:28.536Z,90.99
2023-02-05T18:03:28.335Z,91.07
2023-02-05T18:04:28.565Z,91.12
2023-02-05T18:05:28.981Z,91.16
2023-02-05T18:06:29.496Z,91.22
2023-02-05T18:07:36.776Z,91.22
2023-02-05T18:08:34.123Z,91.17
2023-02-05T18:09:34.416Z,91.18
2023-02-05T18:10:35.338Z,91.07
2023-02-05T18:11:36.096Z,90.92
2023-02-05T18:12:35.584Z,91.1
2023-02-05T18:13:40.818Z,91.31
2023-02-05T18:14:38.265Z,91.44
2023-02-05T18:15:38.473Z,91.34
2023-02-05T18:16:39.130Z,91.27
2023-02-05T18:17:39.822Z,91.42
2023-02-05T18:18:40.227Z,91.4
2023-02-05T18:19:40.141Z,91.4
2023-02-05T18:20:40.463Z,91.45
2023-02-05T18:21:40.782Z,91.45
2023-02-05T18:22:41.248Z,91.61
2023-02-05T18:23:41.698Z,91.64
2023-02-05T18:24:42.635Z,91.45
2023-02-05T18:25:43.038Z,91.14
2023-02-05T18:26:42.744Z,90.92
2023-02-05T18:27:43.133Z,90.77
2023-02-05T18:28:43.562Z,90.93
2023-02-05T18:29:46.756Z,90.89
2023-02-05T18:30:44.345Z,90.93
2023-02-05T18:31:44.668Z,91.05
2023-02-05T18:32:45.540Z,90.99
2023-02-05T18:33:45.456Z,90.87
2023-02-05T18:34:45.874Z,90.7
2023-02-05T18:35:47.712Z,90.42